createdAt,value
2022-07-26T00:01:32.389Z,0.93
2022-07-26T00:04:00.053Z,0.82
2022-07-26T00:06:27.951Z,1.00
2022-07-26T00:08:55.575Z,0.80
2022-07-26T00:11:23.757Z,1.10
2022-07-26T00:13:51.074Z,1.00
2022-07-26T00:16:18.520Z,0.85
2022-07-26T00:18:47.468Z,0.80
2022-07-26T00:21:14.700Z,0.70
2022-07-26T00:23:42.191Z,0.80
2022-07-26T00:26:09.399Z,0.82
2022-07-26T00:28:36.745Z,1.10
2022-07-26T00:31:04.616Z,0.90
2022-07-26T00:33:31.851Z,0.90
2022-07-26T00:35:59.053Z,1.13
2022-07-26T00:38:26.326Z,0.90
2022-07-26T00:40:53.545Z,0.80
2022-07-26T00:43:20.829Z,0.85
2022-07-26T00:45:48.188Z,0.88
2022-07-26T00:48:15.643Z,0.90
2022-07-26T00:50:42.979Z,0.90
2022-07-26T00:53:10.376Z,0.77
2022-07-26T00:55:37.608Z,1.05
2022-07-26T00:58:06.376Z,0.80
2022-07-26T01:00:33.740Z,0.90
2022-07-26T01:03:00.970Z,0.90
2022-07-26T01:05:28.620Z,1.02
2022-07-26T01:07:55.941Z,1.00
2022-07-26T01:10:23.201Z,1.10
2022-07-26T01:12:50.757Z,1.00
2022-07-26T01:15:18.497Z,1.00
2022-07-26T01:17:48.183Z,1.20
2022-07-26T01:20:33.678Z,1.20
2022-07-26T01:23:18.948Z,1.40
2022-07-26T01:25:46.281Z,1.10
2022-07-26T01:28:19.753Z,0.90
2022-07-26T01:31:12.207Z,1.00
2022-07-26T01:34:04.106Z,0.77
2022-07-26T01:36:49.571Z,1.20
2022-07-26T01:39:19.476Z,1.00
2022-07-26T01:41:46.665Z,1.20
2022-07-26T01:44:34.680Z,1.17
2022-07-26T01:50:20.562Z,1.23
2022-07-26T01:52:47.799Z,1.00
2022-07-26T01:55:15.045Z,1.15
2022-07-26T01:57:44.387Z,1.10
2022-07-26T02:00:12.121Z,1.00
2022-07-26T02:02:39.498Z,1.20
2022-07-26T02:05:08.049Z,1.35
2022-07-26T02:07:43.038Z,0.98
2022-07-26T02:13:18.750Z,1.10
2022-07-26T02:16:25.397Z,1.25
2022-07-26T02:19:07.505Z,1.50
2022-07-26T02:21:36.460Z,1.42
2022-07-26T02:24:14.378Z,1.55
2022-07-26T02:26:52.433Z,1.30
2022-07-26T02:29:34.965Z,1.33
2022-07-26T02:32:03.643Z,1.20
2022-07-26T02:34:44.712Z,1.30
2022-07-26T02:37:29.385Z,1.40
2022-07-26T02:40:19.488Z,1.40
2022-07-26T02:42:51.336Z,1.35
2022-07-26T02:45:18.575Z,1.40
2022-07-26T02:47:47.653Z,1.33
2022-07-26T02:50:18.238Z,1.27
2022-07-26T02:52:47.975Z,1.25
2022-07-26T02:55:16.767Z,1.42
2022-07-26T02:57:46.513Z,1.20
2022-07-26T03:00:20.439Z,1.05
2022-07-26T03:02:49.296Z,1.20
2022-07-26T03:05:16.672Z,1.30
2022-07-26T03:07:43.893Z,1.35
2022-07-26T03:10:11.319Z,1.35
2022-07-26T03:12:38.540Z,1.60
2022-07-26T03:15:06.700Z,1.27
2022-07-26T03:17:33.925Z,1.10
2022-07-26T03:20:02.387Z,1.50
2022-07-26T03:22:29.613Z,1.35
2022-07-26T03:24:56.891Z,1.33
2022-07-26T03:27:24.159Z,1.60
2022-07-26T03:29:51.335Z,1.20
2022-07-26T03:32:18.528Z,1.83
2022-07-26T03:34:45.719Z,1.38
2022-07-26T03:37:12.966Z,1.45
2022-07-26T03:39:40.601Z,1.45
2022-07-26T03:42:07.932Z,1.23
2022-07-26T03:44:35.219Z,1.58
2022-07-26T03:47:02.439Z,1.45
2022-07-26T03:49:29.995Z,1.40
2022-07-26T03:51:57.317Z,1.73
2022-07-26T03:54:24.684Z,1.83
2022-07-26T03:56:51.959Z,1.45
2022-07-26T03:59:19.222Z,1.55
2022-07-26T04:01:47.347Z,1.90
2022-07-26T04:04:18.025Z,1.40
2022-07-26T04:06:47.356Z,1.70
2022-07-26T04:09:15.405Z,1.90
2022-07-26T04:11:43.263Z,1.80
2022-07-26T04:14:11.445Z,2.00
2022-07-26T04:16:43.464Z,2.08
2022-07-26T04:19:11.123Z,1.55
2022-07-26T04:21:38.356Z,2.10
2022-07-26T04:24:05.897Z,1.73
2022-07-26T04:26:33.292Z,2.30
2022-07-26T04:29:00.583Z,1.73
2022-07-26T04:31:27.811Z,1.75
2022-07-26T04:34:02.109Z,1.90
2022-07-26T04:36:29.289Z,2.03
2022-07-26T04:38:56.472Z,2.08
2022-07-26T04:41:23.652Z,2.03
2022-07-26T04:43:50.837Z,1.70
2022-07-26T04:46:19.329Z,1.60
2022-07-26T04:48:46.669Z,1.55
2022-07-26T04:51:13.983Z,1.80
2022-07-26T04:53:41.171Z,1.65
2022-07-26T04:56:08.833Z,1.73
2022-07-26T04:58:36.089Z,2.22
2022-07-26T05:01:10.035Z,2.15
2022-07-26T05:03:38.713Z,2.03
2022-07-26T05:06:06.271Z,1.70
2022-07-26T05:08:33.496Z,1.60
2022-07-26T05:11:00.766Z,1.85
2022-07-26T05:13:29.698Z,2.05
2022-07-26T05:15:59.421Z,1.70
2022-07-26T05:18:26.875Z,2.03
2022-07-26T05:20:54.264Z,1.83
2022-07-26T05:23:21.528Z,1.58
2022-07-26T05:25:48.706Z,1.70
2022-07-26T05:28:15.863Z,1.95
2022-07-26T05:30:43.091Z,1.65
2022-07-26T05:33:10.295Z,1.55
2022-07-26T05:35:41.578Z,1.63
2022-07-26T05:38:08.808Z,1.70
2022-07-26T05:40:36.031Z,1.70
2022-07-26T05:43:04.648Z,2.20
2022-07-26T05:45:31.997Z,1.48
2022-07-26T05:47:59.200Z,1.52
2022-07-26T05:50:26.486Z,1.65
2022-07-26T05:52:54.094Z,1.27
2022-07-26T05:55:21.460Z,2.33
2022-07-26T05:57:49.521Z,1.40
2022-07-26T06:00:17.382Z,1.40
2022-07-26T06:02:44.641Z,1.65
2022-07-26T06:05:11.875Z,1.40
2022-07-26T06:07:39.105Z,1.60
2022-07-26T06:10:06.722Z,1.55
2022-07-26T06:12:33.933Z,1.40
2022-07-26T06:15:01.145Z,1.52
2022-07-26T06:17:31.152Z,1.80
2022-07-26T06:19:59.094Z,1.80
2022-07-26T06:22:26.487Z,1.67
2022-07-26T06:24:53.779Z,1.60
2022-07-26T06:27:20.972Z,1.70
2022-07-26T06:29:49.138Z,1.92
2022-07-26T06:32:16.389Z,2.15
2022-07-26T06:34:43.619Z,1.70
2022-07-26T06:37:10.829Z,1.73
2022-07-26T06:39:38.044Z,2.13
2022-07-26T06:42:05.309Z,1.70
2022-07-26T06:44:32.515Z,1.77
2022-07-26T06:46:59.708Z,1.48
2022-07-26T06:49:26.981Z,1.73
2022-07-26T06:51:54.195Z,1.50
2022-07-26T06:54:21.377Z,1.75
2022-07-26T06:56:48.571Z,1.83
2022-07-26T06:59:15.791Z,1.92
2022-07-26T07:01:51.705Z,1.45
2022-07-26T07:04:30.303Z,1.60
2022-07-26T07:07:02.307Z,1.30
2022-07-26T07:09:38.290Z,1.17
2022-07-26T07:12:23.167Z,1.20
2022-07-26T07:15:00.698Z,1.50
2022-07-26T07:17:29.985Z,1.35
2022-07-26T07:19:57.298Z,1.27
2022-07-26T07:22:24.544Z,1.40
2022-07-26T07:24:51.828Z,1.55
2022-07-26T07:27:28.893Z,1.25
2022-07-26T07:29:57.375Z,1.63
2022-07-26T07:32:25.541Z,1.25
2022-07-26T07:35:12.895Z,1.83
2022-07-26T07:37:53.016Z,1.40
2022-07-26T07:42:59.409Z,1.55
2022-07-26T07:45:38.436Z,1.70
2022-07-26T07:48:05.910Z,1.40
2022-07-26T07:50:33.503Z,1.27
2022-07-26T07:53:02.111Z,1.35
2022-07-26T07:55:40.723Z,1.35
2022-07-26T07:58:11.890Z,1.50
2022-07-26T08:00:39.126Z,1.00
2022-07-26T08:03:06.414Z,1.40
2022-07-26T08:05:33.738Z,1.02
2022-07-26T08:08:01.015Z,1.20
2022-07-26T08:10:29.291Z,1.25
2022-07-26T08:12:56.509Z,1.10
2022-07-26T08:15:23.820Z,1.33
2022-07-26T08:17:54.650Z,1.30
2022-07-26T08:20:23.682Z,1.35
2022-07-26T08:22:52.932Z,1.60
2022-07-26T08:25:20.475Z,1.70
2022-07-26T08:28:02.543Z,1.30
2022-07-26T08:30:30.748Z,1.55
2022-07-26T08:32:57.973Z,1.25
2022-07-26T08:35:25.183Z,2.00
2022-07-26T08:37:52.393Z,3.22
2022-07-26T08:40:19.633Z,2.15
2022-07-26T08:42:54.639Z,2.70
2022-07-26T08:45:30.848Z,2.63
2022-07-26T08:50:46.421Z,1.55
2022-07-26T08:53:13.769Z,1.77
2022-07-26T08:58:28.197Z,2.65
2022-07-26T09:01:12.765Z,1.00
2022-07-26T09:03:40.677Z,1.40
2022-07-26T09:06:26.290Z,1.00
2022-07-26T09:09:11.322Z,1.85
2022-07-26T09:11:38.793Z,1.08
2022-07-26T09:14:07.164Z,1.38
2022-07-26T09:16:39.206Z,1.42
2022-07-26T09:19:16.838Z,1.15
2022-07-26T09:21:44.274Z,1.30
2022-07-26T09:24:11.816Z,1.50
2022-07-26T09:26:39.392Z,1.08
2022-07-26T09:29:12.043Z,1.05
2022-07-26T09:31:40.316Z,1.02
2022-07-26T09:34:08.398Z,0.93
2022-07-26T09:36:51.610Z,1.20
2022-07-26T09:39:27.757Z,0.93
2022-07-26T09:42:27.558Z,0.85
2022-07-26T09:44:56.911Z,1.15
2022-07-26T09:47:45.209Z,1.30
2022-07-26T09:50:45.540Z,1.00
2022-07-26T09:53:16.685Z,1.00
2022-07-26T09:56:10.388Z,1.45
2022-07-26T09:59:04.720Z,0.82
2022-07-26T10:01:32.174Z,0.82
2022-07-26T10:04:00.325Z,1.30
2022-07-26T10:06:30.510Z,1.10
2022-07-26T10:08:58.366Z,1.13
2022-07-26T10:11:39.743Z,1.27
2022-07-26T10:14:42.606Z,1.35
2022-07-26T10:17:47.207Z,1.17
2022-07-26T10:23:53.411Z,1.23
2022-07-26T10:26:49.835Z,0.98
2022-07-26T10:29:17.084Z,1.67
2022-07-26T10:32:00.610Z,1.20
2022-07-26T10:34:39.554Z,1.08
2022-07-26T10:37:09.227Z,1.35
2022-07-26T10:39:37.043Z,1.10
2022-07-26T10:42:09.574Z,1.05
2022-07-26T10:44:39.435Z,0.93
2022-07-26T10:47:11.372Z,1.20
2022-07-26T10:49:39.418Z,1.13
2022-07-26T10:52:12.499Z,0.85
2022-07-26T10:55:00.805Z,0.88
2022-07-26T10:57:30.597Z,1.20
2022-07-26T10:59:58.785Z,0.90
2022-07-26T11:02:28.964Z,1.00
2022-07-26T11:05:14.228Z,1.23
2022-07-26T11:08:01.504Z,1.10
2022-07-26T11:10:34.125Z,1.27
2022-07-26T11:13:17.401Z,1.10
2022-07-26T11:15:59.376Z,1.08
2022-07-26T11:18:30.724Z,1.10
2022-07-26T11:21:07.906Z,1.70
2022-07-26T11:23:36.642Z,2.10
2022-07-26T11:26:19.660Z,1.05
2022-07-26T11:28:53.441Z,1.20
2022-07-26T11:31:50.737Z,1.20
2022-07-26T11:34:22.380Z,1.40
2022-07-26T11:36:51.176Z,1.27
2022-07-26T11:39:22.582Z,0.95
2022-07-26T11:41:50.520Z,1.00
2022-07-26T11:44:19.617Z,0.95
2022-07-26T11:46:47.873Z,1.35
2022-07-26T11:49:20.482Z,0.77
2022-07-26T11:51:56.234Z,1.27
2022-07-26T11:54:25.201Z,1.10
2022-07-26T11:56:54.294Z,1.00
2022-07-26T11:59:23.273Z,0.95
2022-07-26T12:01:51.199Z,0.90
2022-07-26T12:04:29.547Z,1.20
2022-07-26T12:06:59.277Z,1.05
2022-07-26T12:09:47.382Z,1.10
2022-07-26T12:12:24.142Z,1.13
2022-07-26T12:15:05.750Z,1.02
2022-07-26T12:17:35.786Z,0.90
2022-07-26T12:20:17.860Z,0.82
2022-07-26T12:22:57.597Z,0.63
2022-07-26T12:25:26.593Z,0.80
2022-07-26T12:27:53.927Z,0.90
2022-07-26T12:30:21.593Z,1.10
2022-07-26T12:32:51.900Z,1.00
2022-07-26T12:35:32.213Z,0.93
2022-07-26T12:37:59.910Z,0.73
2022-07-26T12:40:28.842Z,1.02
2022-07-26T12:43:02.809Z,0.93
2022-07-26T12:45:34.975Z,0.85
2022-07-26T12:48:06.841Z,1.02
2022-07-26T12:50:34.060Z,0.80
2022-07-26T12:53:03.208Z,1.02
2022-07-26T12:55:30.724Z,1.00
2022-07-26T12:57:58.374Z,0.90
2022-07-26T13:00:25.885Z,0.98
2022-07-26T13:02:56.941Z,0.88
2022-07-26T13:05:24.421Z,0.98
2022-07-26T13:07:52.448Z,1.00
2022-07-26T13:10:33.023Z,0.90
2022-07-26T13:13:01.111Z,0.90
2022-07-26T13:15:35.069Z,1.15
2022-07-26T13:18:07.020Z,0.90
2022-07-26T13:20:34.735Z,0.70
2022-07-26T13:23:03.073Z,0.90
2022-07-26T13:25:33.496Z,0.95
2022-07-26T13:28:07.802Z,1.42
2022-07-26T13:30:38.048Z,0.90
2022-07-26T13:33:05.487Z,1.00
2022-07-26T13:35:35.190Z,0.93
2022-07-26T13:38:08.256Z,0.80
2022-07-26T13:40:48.254Z,0.93
2022-07-26T13:43:28.717Z,0.95
2022-07-26T13:45:55.944Z,1.25
2022-07-26T13:48:23.187Z,0.80
2022-07-26T13:50:50.438Z,1.27
2022-07-26T13:53:20.885Z,1.00
2022-07-26T13:56:37.959Z,0.90
2022-07-26T13:59:36.496Z,0.80
2022-07-26T14:02:04.938Z,1.00
2022-07-26T14:04:32.459Z,1.10
2022-07-26T14:06:59.719Z,0.90
2022-07-26T14:09:26.909Z,0.85
2022-07-26T14:11:54.244Z,0.95
2022-07-26T14:14:21.455Z,1.13
2022-07-26T14:16:49.500Z,0.80
2022-07-26T14:19:17.292Z,0.70
2022-07-26T14:21:47.561Z,0.75
2022-07-26T14:24:28.098Z,0.88
2022-07-26T14:26:59.180Z,0.70
2022-07-26T14:29:27.638Z,0.75
2022-07-26T14:31:55.093Z,0.88
2022-07-26T14:34:22.462Z,0.82
2022-07-26T14:36:49.799Z,0.73
2022-07-26T14:39:16.983Z,0.90
2022-07-26T14:41:44.319Z,1.10
2022-07-26T14:44:11.952Z,0.80
2022-07-26T14:46:40.022Z,0.80
2022-07-26T14:49:07.352Z,0.90
2022-07-26T14:51:35.984Z,1.10
2022-07-26T14:54:03.415Z,0.80
2022-07-26T14:56:30.844Z,1.00
2022-07-26T14:58:58.156Z,0.98
2022-07-26T15:01:25.433Z,0.70
2022-07-26T15:03:52.691Z,1.00
2022-07-26T15:06:20.000Z,0.90
2022-07-26T15:08:47.241Z,1.00
2022-07-26T15:11:15.500Z,1.02
2022-07-26T15:13:43.050Z,1.30
2022-07-26T15:16:10.414Z,1.00
2022-07-26T15:18:37.811Z,0.90
2022-07-26T15:21:06.034Z,1.35
2022-07-26T15:23:33.254Z,0.75
2022-07-26T15:26:00.448Z,0.93
2022-07-26T15:28:27.688Z,0.90
2022-07-26T15:30:54.937Z,1.17
2022-07-26T15:33:22.673Z,0.70
2022-07-26T15:35:50.668Z,1.00
2022-07-26T15:38:17.886Z,0.80
2022-07-26T15:40:45.169Z,0.98
2022-07-26T15:43:12.448Z,0.80
2022-07-26T15:45:41.260Z,0.90
2022-07-26T15:48:16.122Z,1.10
2022-07-26T15:50:50.011Z,1.00
2022-07-26T15:53:17.256Z,0.95
2022-07-26T15:55:44.518Z,0.82
2022-07-26T15:58:13.126Z,0.95
2022-07-26T16:00:40.366Z,0.98
2022-07-26T16:03:07.655Z,1.00
2022-07-26T16:05:34.904Z,0.75
2022-07-26T16:08:02.178Z,0.73
2022-07-26T16:10:29.403Z,0.77
2022-07-26T16:12:56.657Z,0.80
2022-07-26T16:15:23.846Z,1.23
2022-07-26T16:17:51.072Z,1.10
2022-07-26T16:20:19.434Z,0.80
2022-07-26T16:22:47.832Z,0.73
2022-07-26T16:25:16.044Z,0.88
2022-07-26T16:27:43.971Z,0.85
2022-07-26T16:30:15.359Z,0.80
2022-07-26T16:32:43.129Z,0.77
2022-07-26T16:35:10.870Z,0.80
2022-07-26T16:37:38.353Z,1.00
2022-07-26T16:40:09.832Z,1.00
2022-07-26T16:42:37.194Z,0.90
2022-07-26T16:45:05.035Z,0.90
2022-07-26T16:47:32.300Z,0.90
2022-07-26T16:49:59.736Z,0.90
2022-07-26T16:52:27.313Z,1.17
2022-07-26T16:54:54.746Z,0.88
2022-07-26T16:57:22.457Z,0.90
2022-07-26T16:59:49.763Z,1.13
2022-07-26T17:02:17.142Z,0.90
2022-07-26T17:04:44.404Z,0.80
2022-07-26T17:07:26.809Z,0.75
2022-07-26T17:09:54.991Z,0.90
2022-07-26T17:12:23.133Z,0.93
2022-07-26T17:14:50.643Z,0.93
2022-07-26T17:17:17.849Z,0.95
2022-07-26T17:19:45.083Z,0.80
2022-07-26T17:22:12.378Z,0.70
2022-07-26T17:24:39.648Z,1.00
2022-07-26T17:27:06.959Z,0.88
2022-07-26T17:29:34.163Z,1.00
2022-07-26T17:32:01.612Z,0.90
2022-07-26T17:34:28.819Z,0.77
2022-07-26T17:37:00.103Z,0.80
2022-07-26T17:39:51.587Z,1.10
2022-07-26T17:42:23.282Z,0.85
2022-07-26T17:44:51.514Z,0.77
2022-07-26T17:47:29.724Z,1.10
2022-07-26T17:50:33.992Z,1.60
2022-07-26T17:52:56.567Z,0.80
2022-07-26T17:55:24.456Z,1.15
2022-07-26T17:57:52.737Z,0.80
2022-07-26T18:00:22.246Z,1.10
2022-07-26T18:02:50.301Z,0.65
2022-07-26T18:05:25.139Z,1.00
2022-07-26T18:07:55.453Z,0.80
2022-07-26T18:10:27.855Z,1.17
2022-07-26T18:12:59.383Z,0.90
2022-07-26T18:15:27.031Z,1.05
2022-07-26T18:17:54.913Z,0.88
2022-07-26T18:20:26.058Z,1.35
2022-07-26T18:22:54.918Z,0.80
2022-07-26T18:25:22.829Z,0.80
2022-07-26T18:27:50.763Z,1.00
2022-07-26T18:30:18.692Z,0.80
2022-07-26T18:32:47.025Z,0.85
2022-07-26T18:35:14.878Z,0.70
2022-07-26T18:37:46.857Z,0.90
2022-07-26T18:40:14.502Z,1.02
2022-07-26T18:42:44.868Z,1.00
2022-07-26T18:45:15.676Z,1.00
2022-07-26T18:47:43.634Z,0.88
2022-07-26T18:50:12.612Z,0.95
2022-07-26T18:52:45.494Z,0.90
2022-07-26T18:55:29.338Z,1.10
2022-07-26T18:58:04.629Z,1.10
2022-07-26T19:00:36.821Z,1.08
2022-07-26T19:03:06.152Z,0.90
2022-07-26T19:05:38.048Z,0.90
2022-07-26T19:08:08.533Z,0.95
2022-07-26T19:10:38.223Z,0.93
2022-07-26T19:13:16.249Z,0.90
2022-07-26T19:15:47.168Z,0.90
2022-07-26T19:18:18.356Z,1.58
2022-07-26T19:20:49.112Z,1.20
2022-07-26T19:23:19.702Z,1.15
2022-07-26T19:28:18.210Z,1.20
2022-07-26T19:30:49.025Z,0.90
2022-07-26T19:33:17.232Z,1.10
2022-07-26T19:35:46.993Z,0.85
2022-07-26T19:38:21.961Z,0.80
2022-07-26T19:40:53.226Z,1.23
2022-07-26T19:43:31.849Z,0.90
2022-07-26T19:46:02.202Z,0.98
2022-07-26T19:48:44.543Z,3.00
2022-07-26T19:51:18.995Z,1.23
2022-07-26T19:53:50.035Z,1.00
2022-07-26T19:56:17.387Z,1.20
2022-07-26T19:58:46.214Z,1.10
2022-07-26T20:01:13.849Z,0.80
2022-07-26T20:03:41.190Z,0.90
2022-07-26T20:06:08.833Z,0.80
2022-07-26T20:08:36.214Z,0.70
2022-07-26T20:11:03.512Z,0.95
2022-07-26T20:13:30.826Z,1.38
2022-07-26T20:15:58.089Z,1.05
2022-07-26T20:18:27.129Z,1.10
2022-07-26T20:20:56.199Z,1.10
2022-07-26T20:23:23.957Z,1.00
2022-07-26T20:25:51.523Z,1.38
2022-07-26T20:28:18.884Z,1.00
2022-07-26T20:30:48.221Z,1.10
2022-07-26T20:33:16.461Z,1.20
2022-07-26T20:35:44.005Z,2.45
2022-07-26T20:38:11.290Z,1.08
2022-07-26T20:40:38.605Z,1.23
2022-07-26T20:43:06.721Z,1.23
2022-07-26T20:45:34.013Z,0.80
2022-07-26T20:48:01.564Z,1.23
2022-07-26T20:50:29.022Z,0.73
2022-07-26T20:52:56.305Z,0.85
2022-07-26T20:55:24.004Z,1.10
2022-07-26T20:57:51.276Z,1.05
2022-07-26T21:00:18.839Z,1.20
2022-07-26T21:02:46.323Z,1.30
2022-07-26T21:05:13.930Z,1.33
2022-07-26T21:07:56.010Z,1.15
2022-07-26T21:10:27.992Z,1.20
2022-07-26T21:12:57.451Z,1.17
2022-07-26T21:15:24.789Z,1.08
2022-07-26T21:17:53.061Z,1.40
2022-07-26T21:20:20.507Z,1.05
2022-07-26T21:22:47.862Z,1.17
2022-07-26T21:25:15.181Z,1.20
2022-07-26T21:27:42.463Z,0.98
2022-07-26T21:30:10.126Z,1.30
2022-07-26T21:32:37.337Z,1.27
2022-07-26T21:35:05.047Z,1.00
2022-07-26T21:37:32.327Z,1.00
2022-07-26T21:39:59.970Z,1.10
2022-07-26T21:42:28.339Z,1.13
2022-07-26T21:44:55.525Z,1.02
2022-07-26T21:47:22.782Z,1.60
2022-07-26T21:49:50.033Z,1.88
2022-07-26T21:52:17.263Z,1.20
2022-07-26T21:54:44.485Z,1.10
2022-07-26T21:57:11.702Z,1.00
2022-07-26T21:59:38.927Z,1.30
2022-07-26T22:02:06.327Z,1.35
2022-07-26T22:04:33.574Z,1.30
2022-07-26T22:07:00.864Z,1.15
2022-07-26T22:09:28.146Z,1.27
2022-07-26T22:11:55.376Z,1.42
2022-07-26T22:14:22.656Z,1.02
2022-07-26T22:16:49.906Z,1.25
2022-07-26T22:19:17.199Z,1.48
2022-07-26T22:21:44.424Z,1.25
2022-07-26T22:24:11.904Z,1.40
2022-07-26T22:26:41.991Z,1.20
2022-07-26T22:29:09.911Z,1.33
2022-07-26T22:31:37.365Z,2.10
2022-07-26T22:34:04.620Z,1.35
2022-07-26T22:36:31.805Z,1.67
2022-07-26T22:38:58.998Z,1.40
2022-07-26T22:41:26.205Z,1.65
2022-07-26T22:43:59.220Z,1.25
2022-07-26T22:46:29.197Z,1.40
2022-07-26T22:48:56.928Z,1.50
2022-07-26T22:51:24.216Z,1.42
2022-07-26T22:53:51.414Z,1.52
2022-07-26T22:56:19.800Z,1.50
2022-07-26T22:58:47.652Z,1.55
2022-07-26T23:01:16.584Z,1.35
2022-07-26T23:03:44.559Z,1.20
2022-07-26T23:06:31.403Z,1.73
2022-07-26T23:08:59.470Z,1.60
2022-07-26T23:11:26.718Z,1.48
2022-07-26T23:13:58.798Z,1.27
2022-07-26T23:16:26.816Z,1.20
2022-07-26T23:18:54.119Z,1.50
2022-07-26T23:21:21.312Z,1.40
2022-07-26T23:23:48.517Z,1.35
2022-07-26T23:26:15.727Z,1.10
2022-07-26T23:28:42.964Z,1.42
2022-07-26T23:31:11.474Z,1.50
2022-07-26T23:33:51.264Z,1.33
2022-07-26T23:36:22.647Z,1.42
2022-07-26T23:38:49.924Z,1.50
2022-07-26T23:41:17.172Z,1.42
2022-07-26T23:43:44.371Z,1.30
2022-07-26T23:46:11.642Z,1.60
2022-07-26T23:48:38.919Z,1.50
2022-07-26T23:51:06.163Z,1.60
2022-07-26T23:53:33.362Z,1.30
2022-07-26T23:56:00.528Z,1.27
2022-07-26T23:58:27.852Z,1.63
